createdAt,value
2023-04-30T00:00:44.461Z,8.70
2023-04-30T00:03:11.683Z,9.15
2023-04-30T00:05:38.889Z,9.30
2023-04-30T00:08:06.152Z,9.65
2023-04-30T00:10:33.553Z,12.05
2023-04-30T00:13:00.831Z,10.98
2023-04-30T00:15:27.990Z,11.27
2023-04-30T00:17:55.171Z,10.93
2023-04-30T00:20:22.402Z,10.75
2023-04-30T00:22:49.556Z,11.02
2023-04-30T00:25:16.970Z,10.85
2023-04-30T00:27:44.183Z,10.90
2023-04-30T00:30:11.626Z,10.38
2023-04-30T00:32:38.952Z,10.32
2023-04-30T00:35:06.370Z,10.15
2023-04-30T00:37:33.526Z,9.55
2023-04-30T00:40:00.679Z,9.65
2023-04-30T00:42:27.872Z,9.02
2023-04-30T00:44:55.039Z,9.50
2023-04-30T00:47:22.376Z,8.95
2023-04-30T00:49:49.662Z,9.25
2023-04-30T00:52:16.803Z,11.57
2023-04-30T00:54:44.120Z,10.50
2023-04-30T00:57:13.889Z,10.60
2023-04-30T00:59:42.507Z,10.38
2023-04-30T01:02:10.666Z,10.23
2023-04-30T01:04:37.892Z,10.13
2023-04-30T01:07:05.376Z,9.45
2023-04-30T01:09:32.726Z,9.52
2023-04-30T01:12:10.945Z,9.68
2023-04-30T01:14:57.286Z,9.52
2023-04-30T01:17:42.869Z,10.18
2023-04-30T01:20:11.462Z,9.45
2023-04-30T01:22:52.642Z,8.65
2023-04-30T01:25:38.586Z,9.68
2023-04-30T01:28:07.213Z,9.85
2023-04-30T01:30:34.915Z,9.43
2023-04-30T01:33:02.191Z,9.70
2023-04-30T01:35:49.508Z,9.88
2023-04-30T01:38:28.977Z,11.65
2023-04-30T01:40:59.306Z,10.60
2023-04-30T01:43:34.888Z,10.45
2023-04-30T01:46:16.738Z,11.40
2023-04-30T01:48:46.312Z,12.88
2023-04-30T01:51:33.523Z,12.73
2023-04-30T01:54:07.394Z,13.15
2023-04-30T01:56:41.548Z,14.52
2023-04-30T01:59:09.855Z,14.45
2023-04-30T02:01:37.127Z,14.75
2023-04-30T02:04:04.984Z,15.77
2023-04-30T02:06:32.656Z,15.10
2023-04-30T02:09:05.544Z,15.95
2023-04-30T02:11:32.810Z,14.15
2023-04-30T02:13:59.999Z,12.43
2023-04-30T02:16:27.312Z,13.55
2023-04-30T02:18:54.454Z,12.57
2023-04-30T02:21:21.596Z,11.93
2023-04-30T02:23:48.744Z,11.63
2023-04-30T02:26:15.930Z,12.48
2023-04-30T02:28:45.860Z,11.70
2023-04-30T02:31:13.087Z,11.65
2023-04-30T02:33:40.324Z,12.93
2023-04-30T02:36:07.524Z,13.70
2023-04-30T02:38:34.866Z,13.02
2023-04-30T02:41:02.417Z,13.48
2023-04-30T02:43:29.602Z,15.80
2023-04-30T02:45:56.865Z,15.82
2023-04-30T02:48:24.124Z,16.48
2023-04-30T02:50:51.260Z,16.95
2023-04-30T02:53:18.508Z,16.90
2023-04-30T02:55:46.182Z,15.40
2023-04-30T02:58:13.665Z,15.15
2023-04-30T03:00:40.873Z,15.23
2023-04-30T03:03:08.282Z,14.95
2023-04-30T03:05:35.630Z,13.52
2023-04-30T03:08:02.800Z,13.05
2023-04-30T03:10:29.916Z,13.63
2023-04-30T03:12:57.241Z,13.50
2023-04-30T03:15:24.408Z,13.68
2023-04-30T03:17:51.860Z,13.90
2023-04-30T03:20:19.151Z,13.07
2023-04-30T03:22:46.414Z,13.75
2023-04-30T03:25:13.606Z,14.68
2023-04-30T03:27:40.740Z,15.75
2023-04-30T03:30:08.206Z,16.67
2023-04-30T03:32:35.338Z,15.48
2023-04-30T03:35:02.547Z,14.88
2023-04-30T03:37:29.701Z,15.02
2023-04-30T03:39:56.988Z,16.20
2023-04-30T03:42:24.309Z,15.15
2023-04-30T03:44:51.550Z,15.13
2023-04-30T03:47:18.698Z,15.90
2023-04-30T03:49:45.980Z,14.50
2023-04-30T03:52:13.283Z,15.13
2023-04-30T03:54:40.473Z,15.45
2023-04-30T03:57:07.970Z,14.98
2023-04-30T03:59:35.324Z,17.70
2023-04-30T04:02:02.553Z,18.63
2023-04-30T04:04:30.246Z,15.43
2023-04-30T04:06:57.495Z,15.50
2023-04-30T04:09:24.630Z,15.68
2023-04-30T04:11:51.799Z,14.27
2023-04-30T04:14:18.972Z,15.52
2023-04-30T04:16:47.064Z,15.05
2023-04-30T04:19:14.276Z,15.05
2023-04-30T04:21:41.513Z,15.38
2023-04-30T04:24:08.971Z,16.23
2023-04-30T04:26:38.792Z,14.05
2023-04-30T04:29:06.014Z,14.40
2023-04-30T04:31:33.258Z,14.63
2023-04-30T04:34:00.863Z,14.10
2023-04-30T04:36:29.007Z,15.10
2023-04-30T04:38:57.706Z,14.70
2023-04-30T04:41:25.474Z,14.93
2023-04-30T04:43:52.891Z,14.13
2023-04-30T04:46:21.074Z,13.30
2023-04-30T04:48:48.310Z,13.45
2023-04-30T04:51:15.480Z,14.45
2023-04-30T04:53:42.612Z,14.32
2023-04-30T04:56:09.825Z,14.13
2023-04-30T04:58:37.135Z,13.50
2023-04-30T05:01:05.893Z,13.23
2023-04-30T05:03:33.390Z,14.25
2023-04-30T05:06:00.853Z,12.35
2023-04-30T05:08:28.077Z,11.90
2023-04-30T05:10:55.504Z,11.57
2023-04-30T05:13:22.643Z,12.23
2023-04-30T05:15:52.152Z,12.25
2023-04-30T05:18:19.484Z,12.43
2023-04-30T05:20:46.679Z,11.52
2023-04-30T05:23:13.838Z,11.65
2023-04-30T05:25:41.014Z,11.38
2023-04-30T05:28:08.321Z,10.65
2023-04-30T05:30:35.564Z,10.88
2023-04-30T05:33:02.744Z,11.18
2023-04-30T05:35:30.673Z,10.80
2023-04-30T05:37:57.877Z,8.65
2023-04-30T05:40:25.083Z,7.60
2023-04-30T05:42:52.237Z,9.55
2023-04-30T05:45:19.484Z,10.57
2023-04-30T05:47:46.911Z,8.18
2023-04-30T05:50:14.163Z,7.93
2023-04-30T05:52:41.333Z,8.25
2023-04-30T05:55:09.660Z,6.95
2023-04-30T05:57:36.967Z,8.75
2023-04-30T06:00:06.798Z,7.10
2023-04-30T06:02:34.138Z,7.53
2023-04-30T06:05:03.322Z,14.93
2023-04-30T06:07:30.854Z,6.25
2023-04-30T06:09:58.808Z,5.93
2023-04-30T06:12:26.337Z,5.10
2023-04-30T06:14:53.705Z,5.28
2023-04-30T06:17:20.941Z,4.88
2023-04-30T06:19:48.183Z,5.03
2023-04-30T06:22:15.323Z,5.07
2023-04-30T06:24:42.543Z,4.90
2023-04-30T06:27:09.740Z,5.00
2023-04-30T06:29:36.960Z,5.18
2023-04-30T06:32:05.325Z,4.80
2023-04-30T06:34:33.608Z,4.70
2023-04-30T06:37:00.957Z,5.15
2023-04-30T06:39:28.130Z,5.55
2023-04-30T06:41:55.306Z,4.82
2023-04-30T06:44:22.441Z,6.00
2023-04-30T06:46:49.569Z,5.70
2023-04-30T06:49:16.878Z,5.35
2023-04-30T06:51:44.701Z,4.90
2023-04-30T06:54:12.217Z,5.00
2023-04-30T06:56:39.390Z,4.95
2023-04-30T06:59:06.769Z,4.55
2023-04-30T07:01:33.920Z,4.05
2023-04-30T07:04:02.115Z,3.83
2023-04-30T07:06:29.488Z,3.00
2023-04-30T07:08:57.502Z,3.08
2023-04-30T07:11:24.684Z,2.88
2023-04-30T07:13:51.856Z,3.25
2023-04-30T07:16:19.152Z,2.72
2023-04-30T07:18:48.913Z,3.22
2023-04-30T07:21:16.328Z,3.47
2023-04-30T07:23:45.302Z,3.42
2023-04-30T07:26:12.457Z,3.58
2023-04-30T07:28:39.971Z,3.70
2023-04-30T07:31:07.808Z,3.72
2023-04-30T07:33:35.092Z,3.33
2023-04-30T07:36:02.247Z,3.38
2023-04-30T07:38:29.504Z,4.00
2023-04-30T07:40:57.639Z,3.00
2023-04-30T07:43:24.971Z,3.05
2023-04-30T07:45:53.474Z,2.80
2023-04-30T07:48:21.466Z,2.90
2023-04-30T07:50:50.764Z,2.70
2023-04-30T07:53:19.984Z,2.72
2023-04-30T07:55:47.563Z,2.65
2023-04-30T07:58:14.805Z,2.40
2023-04-30T08:00:42.105Z,2.33
2023-04-30T08:03:12.264Z,2.45
2023-04-30T08:05:39.727Z,2.30
2023-04-30T08:08:06.981Z,2.28
2023-04-30T08:10:34.362Z,2.08
2023-04-30T08:13:01.541Z,2.35
2023-04-30T08:15:29.467Z,1.77
2023-04-30T08:17:57.392Z,1.77
2023-04-30T08:20:24.739Z,2.67
2023-04-30T08:22:52.113Z,2.63
2023-04-30T08:25:19.247Z,2.28
2023-04-30T08:27:46.681Z,2.65
2023-04-30T08:30:13.924Z,2.42
2023-04-30T08:32:41.548Z,2.22
2023-04-30T08:35:09.289Z,2.25
2023-04-30T08:37:36.495Z,1.83
2023-04-30T08:40:04.608Z,2.17
2023-04-30T08:42:34.069Z,1.90
2023-04-30T08:45:01.611Z,2.22
2023-04-30T08:47:29.102Z,1.90
2023-04-30T08:49:56.464Z,1.95
2023-04-30T08:52:23.905Z,1.70
2023-04-30T08:54:51.258Z,2.25
2023-04-30T08:57:19.385Z,2.15
2023-04-30T08:59:49.560Z,2.10
2023-04-30T09:02:16.717Z,1.98
2023-04-30T09:04:43.884Z,2.03
2023-04-30T09:07:13.378Z,2.10
2023-04-30T09:09:40.949Z,1.85
2023-04-30T09:12:19.137Z,1.77
2023-04-30T09:15:03.846Z,1.92
2023-04-30T09:17:31.643Z,1.80
2023-04-30T09:20:08.397Z,1.70
2023-04-30T09:22:36.744Z,1.63
2023-04-30T09:25:04.082Z,1.75
2023-04-30T09:27:31.271Z,1.85
2023-04-30T09:29:58.736Z,1.80
2023-04-30T09:32:26.013Z,1.60
2023-04-30T09:34:53.154Z,1.50
2023-04-30T09:37:20.473Z,1.40
2023-04-30T09:39:57.039Z,1.35
2023-04-30T09:42:24.791Z,1.85
2023-04-30T09:44:55.355Z,1.60
2023-04-30T09:47:23.308Z,1.48
2023-04-30T09:49:54.689Z,1.27
2023-04-30T09:52:22.389Z,1.58
2023-04-30T09:54:49.646Z,1.58
2023-04-30T09:57:17.098Z,1.30
2023-04-30T09:59:46.139Z,1.15
2023-04-30T10:02:15.093Z,1.17
2023-04-30T10:04:46.115Z,1.25
2023-04-30T10:07:16.298Z,1.38
2023-04-30T10:09:51.282Z,1.38
2023-04-30T10:12:23.130Z,0.93
2023-04-30T10:14:58.117Z,1.00
2023-04-30T10:17:28.287Z,1.23
2023-04-30T10:19:57.759Z,1.00
2023-04-30T10:22:24.869Z,1.00
2023-04-30T10:24:54.056Z,1.42
2023-04-30T10:27:21.495Z,1.20
2023-04-30T10:29:48.625Z,1.05
2023-04-30T10:32:16.378Z,1.10
2023-04-30T10:34:51.800Z,1.00
2023-04-30T10:37:25.145Z,1.50
2023-04-30T10:39:52.701Z,0.80
2023-04-30T10:42:20.083Z,0.98
2023-04-30T10:44:48.640Z,1.00
2023-04-30T10:47:19.321Z,3.10
2023-04-30T10:49:50.081Z,3.55
2023-04-30T10:52:27.921Z,1.20
2023-04-30T10:54:55.512Z,8.18
2023-04-30T10:57:23.029Z,21.08
2023-04-30T10:59:53.525Z,17.60
2023-04-30T11:02:21.484Z,12.88
2023-04-30T11:05:11.269Z,2.60
2023-04-30T11:07:39.002Z,9.65
2023-04-30T11:10:09.646Z,34.70
2023-04-30T11:12:41.670Z,2.88
2023-04-30T11:15:08.900Z,51.90
2023-04-30T11:17:36.443Z,18.33
2023-04-30T11:20:03.735Z,19.38
2023-04-30T11:22:35.907Z,17.67
2023-04-30T11:25:07.257Z,11.63
2023-04-30T11:27:34.892Z,1.23
2023-04-30T11:30:02.590Z,1.00
2023-04-30T11:32:35.062Z,5.43
2023-04-30T11:35:04.282Z,6.95
2023-04-30T11:37:33.107Z,18.38
2023-04-30T11:40:01.548Z,3.40
2023-04-30T11:42:30.698Z,18.05
2023-04-30T11:45:07.303Z,33.10
2023-04-30T11:47:41.643Z,1.77
2023-04-30T11:50:09.706Z,19.25
2023-04-30T11:52:37.141Z,9.18
2023-04-30T11:55:16.233Z,1.55
2023-04-30T11:57:44.538Z,2.90
2023-04-30T12:00:16.128Z,0.70
2023-04-30T12:02:48.012Z,1.60
2023-04-30T12:05:16.053Z,0.98
2023-04-30T12:07:57.039Z,1.83
2023-04-30T12:10:25.903Z,4.05
2023-04-30T12:12:54.594Z,1.92
2023-04-30T12:15:26.413Z,1.30
2023-04-30T12:17:57.821Z,2.40
2023-04-30T12:20:26.000Z,1.58
2023-04-30T12:22:53.381Z,4.90
2023-04-30T12:25:21.638Z,13.75
2023-04-30T12:27:59.924Z,3.47
2023-04-30T12:30:27.616Z,3.42
2023-04-30T12:32:57.529Z,1.20
2023-04-30T12:35:25.149Z,1.95
2023-04-30T12:37:53.254Z,5.82
2023-04-30T12:40:21.474Z,0.90
2023-04-30T12:42:48.663Z,1.05
2023-04-30T12:45:34.559Z,1.10
2023-04-30T12:48:01.865Z,1.17
2023-04-30T12:50:29.231Z,0.80
2023-04-30T12:52:57.742Z,0.88
2023-04-30T12:55:25.185Z,0.60
2023-04-30T12:58:08.718Z,0.93
2023-04-30T13:00:45.582Z,0.75
2023-04-30T13:03:13.500Z,0.90
2023-04-30T13:05:47.342Z,0.70
2023-04-30T13:08:14.686Z,0.88
2023-04-30T13:10:42.081Z,0.63
2023-04-30T13:13:09.219Z,0.70
2023-04-30T13:15:36.497Z,0.70
2023-04-30T13:18:03.946Z,0.50
2023-04-30T13:20:31.300Z,0.93
2023-04-30T13:22:58.509Z,0.50
2023-04-30T13:25:26.019Z,0.88
2023-04-30T13:27:53.321Z,0.77
2023-04-30T13:30:20.498Z,0.75
2023-04-30T13:32:47.811Z,0.65
2023-04-30T13:35:15.015Z,0.90
2023-04-30T13:37:42.646Z,0.70
2023-04-30T13:40:10.178Z,0.68
2023-04-30T13:42:42.719Z,0.70
2023-04-30T13:45:10.326Z,0.73
2023-04-30T13:47:38.334Z,0.80
2023-04-30T13:50:06.149Z,1.00
2023-04-30T13:52:33.451Z,1.25
2023-04-30T13:55:00.581Z,1.17
2023-04-30T13:57:30.035Z,0.95
2023-04-30T13:59:59.288Z,1.30
2023-04-30T14:02:28.372Z,0.90
2023-04-30T14:05:05.391Z,0.95
2023-04-30T14:07:33.752Z,0.85
2023-04-30T14:10:01.003Z,0.68
2023-04-30T14:12:30.582Z,1.05
2023-04-30T14:14:57.972Z,0.90
2023-04-30T14:17:29.037Z,1.10
2023-04-30T14:19:57.027Z,0.90
2023-04-30T14:22:24.554Z,1.05
2023-04-30T14:24:53.019Z,0.90
2023-04-30T14:27:21.253Z,0.93
2023-04-30T14:29:48.443Z,1.17
2023-04-30T14:32:16.009Z,1.00
2023-04-30T14:34:43.322Z,1.02
2023-04-30T14:37:10.691Z,1.00
2023-04-30T14:39:37.808Z,0.90
2023-04-30T14:42:05.297Z,0.90
2023-04-30T14:44:32.504Z,1.10
2023-04-30T14:46:59.725Z,1.10
2023-04-30T14:49:27.844Z,1.02
2023-04-30T14:51:55.100Z,1.00
2023-04-30T14:54:22.239Z,0.93
2023-04-30T14:56:49.663Z,0.85
2023-04-30T14:59:17.752Z,1.08
2023-04-30T15:01:45.110Z,1.13
2023-04-30T15:04:12.379Z,1.15
2023-04-30T15:06:39.790Z,1.08
2023-04-30T15:09:09.734Z,0.95
2023-04-30T15:11:36.912Z,1.30
2023-04-30T15:14:04.356Z,0.60
2023-04-30T15:16:31.688Z,1.00
2023-04-30T15:18:59.709Z,1.30
2023-04-30T15:21:29.020Z,1.00
2023-04-30T15:23:56.300Z,0.85
2023-04-30T15:26:23.518Z,0.85
2023-04-30T15:28:50.735Z,0.80
2023-04-30T15:31:18.061Z,1.40
2023-04-30T15:33:45.453Z,1.30
2023-04-30T15:36:12.704Z,0.82
2023-04-30T15:38:39.904Z,0.82
2023-04-30T15:41:11.045Z,1.17
2023-04-30T15:43:38.261Z,0.90
2023-04-30T15:46:05.633Z,0.95
2023-04-30T15:48:33.181Z,1.08
2023-04-30T15:51:00.370Z,0.70
2023-04-30T15:53:27.620Z,1.05
2023-04-30T15:55:54.865Z,1.27
2023-04-30T15:58:22.493Z,0.98
2023-04-30T16:00:49.619Z,1.23
2023-04-30T16:03:17.316Z,0.70
2023-04-30T16:05:44.703Z,0.98
2023-04-30T16:08:12.279Z,0.90
2023-04-30T16:10:39.603Z,0.63
2023-04-30T16:13:07.049Z,1.10
2023-04-30T16:15:34.249Z,1.20
2023-04-30T16:18:02.016Z,1.17
2023-04-30T16:20:29.355Z,0.90
2023-04-30T16:22:57.565Z,1.48
2023-04-30T16:25:24.717Z,1.10
2023-04-30T16:27:53.655Z,1.35
2023-04-30T16:30:20.900Z,1.58
2023-04-30T16:32:50.450Z,1.10
2023-04-30T16:35:17.634Z,1.00
2023-04-30T16:37:44.863Z,1.30
2023-04-30T16:40:12.334Z,1.10
2023-04-30T16:42:39.533Z,1.02
2023-04-30T16:45:06.982Z,1.38
2023-04-30T16:47:34.180Z,1.30
2023-04-30T16:50:01.421Z,1.13
2023-04-30T16:52:29.667Z,1.25
2023-04-30T16:54:57.102Z,1.15
2023-04-30T16:57:25.231Z,0.77
2023-04-30T16:59:52.854Z,1.00
2023-04-30T17:02:20.393Z,0.98
2023-04-30T17:04:47.549Z,1.10
2023-04-30T17:07:16.280Z,1.20
2023-04-30T17:09:43.510Z,1.00
2023-04-30T17:12:11.190Z,1.20
2023-04-30T17:14:38.833Z,1.58
2023-04-30T17:17:06.603Z,1.20
2023-04-30T17:19:34.415Z,1.70
2023-04-30T17:22:01.820Z,1.70
2023-04-30T17:24:29.577Z,1.50
2023-04-30T17:26:58.227Z,1.40
2023-04-30T17:29:26.619Z,1.27
2023-04-30T17:31:54.375Z,1.45
2023-04-30T17:34:21.769Z,1.25
2023-04-30T17:36:50.107Z,1.67
2023-04-30T17:39:18.797Z,1.90
2023-04-30T17:41:46.314Z,1.38
2023-04-30T17:44:13.688Z,1.70
2023-04-30T17:46:41.217Z,1.65
2023-04-30T17:49:08.646Z,2.50
2023-04-30T17:51:35.870Z,38.25
2023-04-30T17:54:03.034Z,20.08
2023-04-30T17:56:31.427Z,8.00
2023-04-30T17:58:59.909Z,7.20
2023-04-30T18:01:27.650Z,2.55
2023-04-30T18:03:55.297Z,17.95
2023-04-30T18:06:22.706Z,13.70
2023-04-30T18:08:49.860Z,3.72
2023-04-30T18:11:17.059Z,2.22
2023-04-30T18:13:44.909Z,1.75
2023-04-30T18:16:14.133Z,1.60
2023-04-30T18:18:41.506Z,4.75
2023-04-30T18:21:08.904Z,3.83
2023-04-30T18:23:36.698Z,1.83
2023-04-30T18:26:04.112Z,1.77
2023-04-30T18:28:31.277Z,1.67
2023-04-30T18:30:58.466Z,1.77
2023-04-30T18:33:26.157Z,1.60
2023-04-30T18:35:53.301Z,1.77
2023-04-30T18:38:20.739Z,1.50
2023-04-30T18:40:48.554Z,2.00
2023-04-30T18:43:16.857Z,2.58
2023-04-30T18:45:44.088Z,2.60
2023-04-30T18:48:11.495Z,2.13
2023-04-30T18:50:39.473Z,1.60
2023-04-30T18:53:07.965Z,1.33
2023-04-30T18:55:35.168Z,1.67
2023-04-30T18:58:02.360Z,1.75
2023-04-30T19:00:30.561Z,2.30
2023-04-30T19:02:57.789Z,3.20
2023-04-30T19:05:25.072Z,3.00
2023-04-30T19:07:52.277Z,2.83
2023-04-30T19:10:19.528Z,3.70
2023-04-30T19:12:46.845Z,3.40
2023-04-30T19:15:15.243Z,2.83
2023-04-30T19:17:42.682Z,3.22
2023-04-30T19:20:10.369Z,2.80
2023-04-30T19:22:37.848Z,3.30
2023-04-30T19:25:05.435Z,5.13
2023-04-30T19:27:32.587Z,4.70
2023-04-30T19:29:59.752Z,4.30
2023-04-30T19:32:27.325Z,3.80
2023-04-30T19:34:54.706Z,3.90
2023-04-30T19:37:22.271Z,4.55
2023-04-30T19:39:49.459Z,5.18
2023-04-30T19:42:16.592Z,5.45
2023-04-30T19:44:43.794Z,5.00
2023-04-30T19:47:10.934Z,4.68
2023-04-30T19:49:38.318Z,3.67
2023-04-30T19:52:07.766Z,6.30
2023-04-30T19:54:34.971Z,7.50
2023-04-30T19:57:02.268Z,6.82
2023-04-30T19:59:29.564Z,6.38
2023-04-30T20:01:57.097Z,6.63
2023-04-30T20:04:26.580Z,7.20
2023-04-30T20:06:57.165Z,7.50
2023-04-30T20:09:24.982Z,6.75
2023-04-30T20:11:52.199Z,12.00
2023-04-30T20:14:19.664Z,10.65
2023-04-30T20:16:52.354Z,19.15
2023-04-30T20:19:19.496Z,20.70
2023-04-30T20:21:48.359Z,17.52
2023-04-30T20:24:16.063Z,13.13
2023-04-30T20:26:43.524Z,15.23
2023-04-30T20:29:10.777Z,7.10
2023-04-30T20:31:38.253Z,6.30
2023-04-30T20:34:05.670Z,8.57
2023-04-30T20:36:32.888Z,15.35
2023-04-30T20:39:02.846Z,6.97
2023-04-30T20:41:30.452Z,8.38
2023-04-30T20:44:00.013Z,8.25
2023-04-30T20:46:28.346Z,8.13
2023-04-30T20:49:01.288Z,8.90
2023-04-30T20:51:28.580Z,9.52
2023-04-30T20:53:55.825Z,5.88
2023-04-30T20:56:23.061Z,5.10
2023-04-30T20:58:50.278Z,4.45
2023-04-30T21:01:17.486Z,5.00
2023-04-30T21:03:44.847Z,6.38
2023-04-30T21:06:12.164Z,6.28
2023-04-30T21:08:39.283Z,9.10
2023-04-30T21:11:06.422Z,7.10
2023-04-30T21:13:33.584Z,7.40
2023-04-30T21:16:00.723Z,6.43
2023-04-30T21:18:28.138Z,6.53
2023-04-30T21:21:02.169Z,6.50
2023-04-30T21:23:30.074Z,5.70
2023-04-30T21:25:57.242Z,7.78
2023-04-30T21:28:24.486Z,5.85
2023-04-30T21:30:52.152Z,9.23
2023-04-30T21:33:19.378Z,7.80
2023-04-30T21:35:46.524Z,6.72
2023-04-30T21:38:13.861Z,6.32
2023-04-30T21:40:42.419Z,5.25
2023-04-30T21:43:09.940Z,5.55
2023-04-30T21:45:37.093Z,6.45
2023-04-30T21:48:05.089Z,8.35
2023-04-30T21:50:35.602Z,7.10
2023-04-30T21:53:03.395Z,9.60
2023-04-30T21:55:30.647Z,6.75
2023-04-30T21:57:57.952Z,7.45
2023-04-30T22:00:25.374Z,6.40
2023-04-30T22:02:52.631Z,6.50
2023-04-30T22:05:21.115Z,5.05
2023-04-30T22:07:48.536Z,7.88
2023-04-30T22:10:15.716Z,9.77
2023-04-30T22:12:46.205Z,7.82
2023-04-30T22:15:14.732Z,7.15
2023-04-30T22:17:42.224Z,8.45
2023-04-30T22:20:10.186Z,6.82
2023-04-30T22:22:37.681Z,15.38
2023-04-30T22:25:05.069Z,7.68
2023-04-30T22:27:32.336Z,5.90
2023-04-30T22:29:59.482Z,9.98
2023-04-30T22:32:27.643Z,7.00
2023-04-30T22:34:55.007Z,6.53
2023-04-30T22:37:22.408Z,6.57
2023-04-30T22:39:49.636Z,5.95
2023-04-30T22:42:16.945Z,5.80
2023-04-30T22:44:45.374Z,6.75
2023-04-30T22:47:12.716Z,10.30
2023-04-30T22:49:39.926Z,9.93
2023-04-30T22:52:07.303Z,8.63
2023-04-30T22:54:37.323Z,7.75
2023-04-30T22:57:04.522Z,7.20
2023-04-30T22:59:31.721Z,7.25
2023-04-30T23:01:59.519Z,6.60
2023-04-30T23:04:27.334Z,6.68
2023-04-30T23:06:55.014Z,6.95
2023-04-30T23:09:22.205Z,7.35
2023-04-30T23:11:49.633Z,6.93
2023-04-30T23:14:17.039Z,6.60
2023-04-30T23:16:44.440Z,6.90
2023-04-30T23:19:11.865Z,7.05
2023-04-30T23:21:39.311Z,7.53
2023-04-30T23:24:06.528Z,7.13
2023-04-30T23:26:33.716Z,6.82
2023-04-30T23:29:01.073Z,8.35
2023-04-30T23:31:28.382Z,7.63
2023-04-30T23:33:55.942Z,8.85
2023-04-30T23:36:23.333Z,8.95
2023-04-30T23:38:51.362Z,8.35
2023-04-30T23:41:18.778Z,8.60
2023-04-30T23:43:45.899Z,7.82
2023-04-30T23:46:13.159Z,7.90
2023-04-30T23:48:40.866Z,6.93
2023-04-30T23:51:08.876Z,6.90
2023-04-30T23:53:36.338Z,8.02
2023-04-30T23:56:03.588Z,6.93
2023-04-30T23:58:30.880Z,7.68
